METAR Data
IDs: Format: Raw Decoded Include TAF

Data at: 2353 UTC 25 Oct 2021

PAUN 252256Z AUTO 29013KT 10SM FEW023 00/M04 A2936 RMK AO2 SLP945 T00001044 FZRANO
PAUN 252214Z AUTO 32011KT 10SM SCT027 SCT037 BKN050 M01/M04 A2935 RMK AO2 FZRANO
PAUN 252156Z AUTO 31013KT 10SM BKN029 OVC037 00/M05 A2935 RMK AO2 SLP943 T00001050 FZRANO
PAUN 252056Z AUTO 29015KT 10SM SCT026 M01/M06 A2934 RMK AO2 SLP939 T10061056 51005 FZRANO
PAUN 252025Z AUTO 31012KT 10SM BKN026 BKN034 M01/M04 A2934 RMK AO2 FZRANO
PAUN 251956Z AUTO 31012KT 10SM SCT026 BKN036 M01/M04 A2934 RMK AO2 SLP938 T10061044 FZRANO
PAUN 251856Z AUTO 29014KT 10SM SCT029 BKN034 M01/M05 A2934 RMK AO2 SLP937 T10061050 FZRANO
PAUN 251756Z AUTO 28014KT 10SM BKN031 BKN040 00/M05 A2933 RMK AO2 SLP934 60000 T00001050 10006 21006 53001 FZRANO
PAUN 251656Z AUTO 29015KT 10SM FEW029 00/M05 A2933 RMK AO2 UPE13 SLP934 P0000 T00001050 FZRANO
PAUN 251556Z AUTO 29016KT 10SM UP SCT030 BKN036 OVC043 00/M05 A2932 RMK AO2 UPB51SNE37 SLP932 P0000 T00001050 FZRANO
PAUN 251528Z AUTO 30012KT 9SM -SN FEW018 BKN030 OVC040 M01/M03 A2932 RMK AO2 P0000 FZRANO
PAUN 251517Z AUTO 30011KT 6SM -SN BR SCT008 BKN017 OVC041 M01/M03 A2932 RMK AO2 CIG 013V023 P0000 FZRANO
PAUN 251456Z AUTO 28013KT 3SM -SN BR SCT008 BKN012 OVC040 M01/M02 A2932 RMK AO2 UPE05B29E55SNB55 SLP933 P0000 60000 T10061017 56002 FZRANO
PAUN 251441Z AUTO 28015KT 8SM UP FEW010 BKN026 BKN034 00/M02 A2932 RMK AO2 UPE05B29 P0000 FZRANO
PAUN 251356Z AUTO 29012KT 10SM UP SCT030 OVC041 00/M03 A2932 RMK AO2 SLP933 P0000 T00001033 FZRANO
PAUN 251309Z AUTO 27016KT 10SM UP FEW026 BKN033 BKN070 00/M02 A2933 RMK AO2 P0000 FZRANO
PAUN 251256Z AUTO 27018KT 9SM UP FEW009 BKN026 OVC033 00/M02 A2933 RMK AO2 RAB12E23UPB54SNB23E51 SLP934 P0000 T00001017 FZRANO
PAUN 251241Z AUTO 28010KT 9SM -SN SCT010 BKN020 OVC031 00/M02 A2933 RMK AO2 RAB12E23SNB23 P0000 FZRANO
PAUN 251227Z AUTO 25012KT 2 1/2SM -SN BR SCT008 OVC016 00/M02 A2933 RMK AO2 RAB12E23SNB23 P0000 FZRANO
PAUN 251220Z AUTO 24013KT 10SM -RA FEW008 SCT012 BKN019 00/M02 A2933 RMK AO2 RAB12 P0000 FZRANO
PAUN 251210Z AUTO 27013KT 10SM BKN019 BKN024 BKN034 01/M02 A2933 RMK AO2 FZRANO
PAUN 251156Z AUTO 28012KT 10SM SCT019 BKN034 BKN040 01/M02 A2933 RMK AO2 UPB17E23B39E50SNB23E39 SLP935 P0000 60002 70003 T00061022 10011 21006 58009 FZRANO
PAUN 251128Z AUTO 28010KT 5SM -SN BR FEW007 SCT036 M01/M02 A2933 RMK AO2 UPB17E23SNB23 P0000 FZRANO
PAUN 251056Z AUTO 27013KT 10SM FEW028 BKN040 01/M03 A2934 RMK AO2 WSHFT 1027 UPB22E29SNE22 SLP937 P0002 T00111033 FZRANO
PAUN 251045Z AUTO 26014KT 10SM FEW009 SCT026 BKN040 01/M04 A2934 RMK AO2 WSHFT 1027 UPB22E29SNE22 P0002 FZRANO
PAUN 251040Z AUTO 25014KT 10SM FEW007 BKN026 OVC038 01/M03 A2934 RMK AO2 UPB22E29SNE22 P0002 FZRANO
PAUN 251030Z AUTO 24011KT 10SM SCT007 BKN012 OVC027 00/M01 A2934 RMK AO2 UPB22E29SNE22 P0001 FZRANO
PAUN 251014Z AUTO 21015KT 7SM -SN BKN009 OVC013 00/M01 A2934 RMK AO2 CIG 005V010 P0001 FZRANO
PAUN 251001Z AUTO 24009KT 2 1/2SM -SN BR BKN009 OVC014 00/M01 A2935 RMK AO2 VIS 1 1/2V4 CIG 004V011 P0001 FZRANO
PAUN 250956Z AUTO 27007KT 3SM -SN BR FEW005 BKN011 OVC016 M01/M01 A2935 RMK AO2 RAE01UPB01E04B40E43SNB04E40B43 SLP943 P0000 T10061011 FZRANO
PAUN 250945Z AUTO 25008KT 5SM -SN BR SCT007 OVC011 00/M01 A2935 RMK AO2 RAE01UPB01E04B40E43SNB04E40B43 P0000 FZRANO
PAUN 250929Z AUTO 21016KT 2 1/2SM -SN BR BKN007 BKN011 OVC024 00/M01 A2935 RMK AO2 RAE01UPB01E04SNB04 CIG 005V008 P0000 FZRANO
PAUN 250924Z AUTO 21014KT 3SM -SN BR SCT007 BKN014 OVC024 00/M01 A2935 RMK AO2 RAE01UPB01E04SNB04 P0000 FZRANO
PAUN 250920Z AUTO 22011KT 2 1/2SM -SN BR BKN009 BKN016 OVC024 M01/M01 A2935 RMK AO2 VIS 1 1/4V5 RAE01UPB01E04SNB04 CIG 005V012 P0000 FZRANO
PAUN 250912Z AUTO 22011KT 3SM -SN BR BKN009 BKN016 OVC024 M01/M02 A2936 RMK AO2 RAE01UPB01E04SNB04 CIG 006V012 P0000 FZRANO
PAUN 250856Z AUTO 23017KT 3SM -RA BR SCT009 OVC015 00/M02 A2936 RMK AO2 UPB19E38RAB52 SLP944 P0000 60000 T00001017 400170000 58000 FZRANO
PAUN 250853Z AUTO 23015KT 4SM -RA BR FEW007 BKN012 OVC025 01/M02 A2936 RMK AO2 UPB19E38RAB52 P0000 400170000 FZRANO
PAUN 250756Z AUTO 22017KT 10SM BKN015 OVC041 00/M02 A2936 RMK AO2 UPB13E16SNE13 SLP946 P0000 T00001017 FZRANO
PAUN 250749Z AUTO 22017KT 10SM BKN013 OVC020 00/M02 A2936 RMK AO2 UPB13E16SNE13 P0000 FZRANO
PAUN 250739Z AUTO 21015KT 10SM BKN015 OVC022 00/M02 A2936 RMK AO2 UPB13E16SNE13 P0000 FZRANO
PAUN 250721Z AUTO 21016KT 10SM OVC013 00/M01 A2936 RMK AO2 UPB13E16SNE13 P0000 FZRANO
PAUN 250656Z AUTO 22015KT 3SM -SN BR BKN008 BKN017 OVC027 00/M01 A2936 RMK AO2 UPE01B46E55RAB01E26SNB55 CIG 005V014 SLP946 P0000 T00001011 FZRANO
PAUN 250646Z AUTO 23017KT 10SM UP BKN008 BKN016 BKN034 00/M01 A2936 RMK AO2 UPE01B46RAB01E26 CIG 005V010 P0000 FZRANO
PAUN 250626Z AUTO 22016KT 10SM FEW006 SCT013 BKN028 00/M01 A2936 RMK AO2 UPE01RAB01E26 P0000 FZRANO
PAUN 250601Z AUTO 22018KT 10SM -RA SCT010 BKN016 OVC029 01/M01 A2936 RMK AO2 UPE01RAB01 P0000 FZRANO
PAUN 250556Z AUTO 21019KT 9SM UP BKN009 BKN016 OVC021 01/M01 A2936 RMK AO2 RAE01UPB18 CIG 005V014 SLP944 P0000 60000 T00061011 10011 20000 58008 FZRANO
PAUN 250544Z AUTO 24008G19KT 4SM UP BR BKN007 BKN015 OVC032 00/M01 A2937 RMK AO2 RAE01UPB18 CIG 005V010 P0000 FZRANO
PAUN 250541Z AUTO 23010G20KT 6SM UP BR BKN010 BKN020 OVC026 00/M01 A2937 RMK AO2 RAE01UPB18 CIG 005V016 P0000 FZRANO
PAUN 250456Z AUTO 23016KT 10SM -RA SCT008 SCT012 OVC018 01/M01 A2938 RMK AO2 UPE15RAB15E23B39SNB23E39 SLP951 P0000 T00061011 FZRANO
PAUN 250453Z AUTO 23014KT 10SM -RA SCT008 BKN012 OVC018 01/M01 A2938 RMK AO2 UPE15RAB15E23B39SNB23E39 P0000 FZRANO
PAUN 250429Z AUTO 23013KT 6SM -SN BR SCT008 BKN016 OVC025 01/M01 A2938 RMK AO2 UPE15RAB15E23SNB23 P0000 FZRANO
PAUN 250356Z AUTO 22012KT 10SM UP SCT016 BKN025 01/M02 A2938 RMK AO2 RAE55UPB09E34B55 SLP953 P0000 T00061017 FZRANO
PAUN 250303Z AUTO 23017KT 10SM -RA FEW003 BKN015 OVC039 01/M01 A2939 RMK AO2 P0000 FZRANO
PAUN 250256Z AUTO 21014KT 9SM -RA FEW003 BKN013 OVC039 01/M01 A2939 RMK AO2 RAE35B56UPB22E30SNB35E56 SLP955 P0000 60000 T00061006 56012 FZRANO
PAUN 250251Z AUTO 22017KT 6SM -SN BR FEW006 BKN016 OVC037 01/M01 A2939 RMK AO2 RAE35UPB22E30SNB35 P0000 FZRANO
PAUN 250245Z AUTO 22017KT 2SM -SN BR FEW006 BKN014 OVC037 01/M01 A2939 RMK AO2 VIS 1V5 RAE35UPB22E30SNB35 P0000 FZRANO
PAUN 250239Z AUTO 23014G21KT 1 3/4SM -SN BR FEW003 BKN019 OVC037 01/M01 A2940 RMK AO2 VIS 1V5 RAE35UPB22E30SNB35 CIG 014V024 P0000 FZRANO
PAUN 250234Z AUTO 23016KT 3SM -RA BR SCT009 BKN023 OVC037 01/M01 A2939 RMK AO2 UPB22E30 P0000 FZRANO
PAUN 250223Z AUTO 22017KT 10SM UP BKN014 OVC033 01/M01 A2939 RMK AO2 RAE22UPB22 P0000 FZRANO
PAUN 250156Z AUTO 22015KT 10SM -RA OVC015 01/M01 A2940 RMK AO2 RAB01SNE19 SLP959 P0000 T00061011 FZRANO
PAUN 250056Z AUTO 21015KT 10SM -SN OVC013 01/M01 A2941 RMK AO2 UPB04E08RAB08E50SNB50 SLP962 P0000 T00061011 FZRANO
PAUN 242356Z AUTO 21016KT 10SM OVC011 01/M01 A2942 RMK AO2 SLP967 60000 T00061011 10011 20006 58008 FZRANO
PAUN 242256Z AUTO 21016KT 10SM OVC013 01/M02 A2944 RMK AO2 SLP972 T00061017 FZRANO
PAUN 242244Z AUTO 21017KT 10SM OVC013 01/M02 A2944 RMK AO2 FZRANO
PAUN 242156Z AUTO 21016KT 10SM BKN016 OVC022 01/M02 A2944 RMK AO2 UPE2058 SLP973 P0000 T00111017 FZRANO
PAUN 242120Z AUTO 22016KT 10SM BKN016 OVC022 01/M01 A2945 RMK AO2 UPE2058 P0000 FZRANO
PAUN 242056Z AUTO 22015KT 10SM UP BKN012 OVC020 01/M01 A2945 RMK AO2 UPB40 SLP975 P0000 60000 T00061011 53001 FZRANO
PAUN 241956Z AUTO 22017KT 10SM BKN012 OVC020 01/M02 A2944 RMK AO2 SLP974 T00061017 FZRANO
PAUN 241856Z AUTO 21015KT 10SM OVC012 01/M01 A2944 RMK AO2 SLP972 T00061011 FZRANO
PAUN 241756Z AUTO 21017KT 10SM OVC013 01/M02 A2944 RMK AO2 SLP974 60001 T00061017 10017 20006 57003 FZRANO
PAUN 241753Z AUTO 21015KT 10SM OVC013 01/M02 A2944 RMK AO2 FZRANO
PAUN 241742Z AUTO 21015KT 9SM OVC015 01/M02 A2944 RMK AO2 FZRANO
PAUN 241726Z AUTO 21015KT 10SM OVC014 01/M02 A2945 RMK AO2 FZRANO
PAUN 241715Z AUTO 22017KT 10SM OVC016 01/M02 A2945 RMK AO2 FZRANO
PAUN 241656Z AUTO 22016KT 10SM OVC014 01/M01 A2945 RMK AO2 SLP976 T00111011 FZRANO
PAUN 241556Z AUTO 22014KT 10SM OVC012 01/M01 A2945 RMK AO2 SLP976 T00111006 FZRANO
PAUN 241456Z AUTO 21014KT 10SM BKN010 BKN034 01/M01 A2944 RMK AO2 UPB1358E10 CIG 009V014 SLP974 P0000 60001 T00111006 51007 FZRANO
PAUN 241425Z AUTO 21017KT 10SM BKN010 OVC030 01/M01 A2944 RMK AO2 UPB1358E10 P0000 FZRANO
PAUN 241412Z AUTO 22016KT 10SM SCT010 BKN028 OVC035 01/00 A2944 RMK AO2 UPB1358E10 P0000 FZRANO
PAUN 241356Z AUTO 22014KT 10SM FEW010 SCT022 OVC037 01/M01 A2944 RMK AO2 RAB02E12UPB21E25SNB12E21 SLP974 P0001 T00111006 FZRANO
PAUN 241346Z AUTO 22016KT 10SM SCT010 SCT014 OVC035 01/M01 A2944 RMK AO2 RAB02E12UPB21E25SNB12E21 P0001 FZRANO
PAUN 241320Z AUTO 21016KT 9SM -SN BKN010 OVC015 01/00 A2943 RMK AO2 RAB02E12SNB12 CIG 007V012 P0001 FZRANO
PAUN 241256Z AUTO 21013KT 10SM FEW016 BKN026 OVC032 01/00 A2943 RMK AO2 SLP971 T00110000 FZRANO
PAUN 241226Z AUTO 24012G16KT 10SM SCT019 OVC028 02/00 A2943 RMK AO2 FZRANO
PAUN 241213Z AUTO 25009KT 10SM FEW015 SCT022 OVC031 02/00 A2943 RMK AO2 FZRANO
PAUN 241156Z AUTO 24010KT 10SM SCT013 BKN018 OVC035 01/00 A2942 RMK AO2 RAB25E33B53E54UPB49E53SNB33E49 SLP967 P0000 60000 T00110000 10011 20000 51009 FZRANO